Terminal Aerodrome Forecast
Issued by NWS Kansas City/Pleasant Hill, MO

Home | Current Version | Previous Version | Text Only | Print | Product List | Glossary On
Versions: 1 2 3 4 5 6 7 8 9 10 11 12 13 14 15
000
FTUS43 KEAX 020500
TAFMCI
TAF
KMCI 020534Z 0206/0306 07010KT P6SM SCT015 SCT100
      TEMPO 0210/0213 3SM BR BKN035
     FM021300 04009KT P6SM SCT025=

USA.gov is the U.S. government's official web portal to all federal, state and local government web resources and services.